Time;durP1;ratioP1;P1;durP2;ratioP2;P2;SDS_P1;SDS_P2;PMS_P1;PMS_P2;Temp;Humidity;BMP_temperature;BMP_pressure;BME280_temperature;BME280_humidity;BME280_pressure;Samples;Min_cycle;Max_cycle;Signal;HPM_P1;HPM_P2
2023/07/03 00:00:20;;;;;;;15.55;13.95;;;;;;;20.19;90.92;94305.75;5112737;28;20187;-46
2023/07/03 00:02:49;;;;;;;15.73;13.90;;;;;;;20.17;91.02;94312.97;5099105;28;20201;-44
2023/07/03 00:05:16;;;;;;;15.27;13.68;;;;;;;20.17;91.15;94295.56;5091290;28;20275;-46
2023/07/03 00:07:43;;;;;;;15.60;14.00;;;;;;;20.18;91.21;94304.94;5091022;28;20720;-44
2023/07/03 00:10:10;;;;;;;15.45;13.88;;;;;;;19.90;90.93;94252.53;5090634;28;20235;-43
2023/07/03 00:12:36;;;;;;;16.45;14.52;;;;;;;20.14;91.08;94295.19;5091252;28;20197;-43
2023/07/03 00:15:04;;;;;;;15.93;14.23;;;;;;;20.08;91.38;94299.41;5090894;28;20239;-46
2023/07/03 00:17:33;;;;;;;16.15;14.30;;;;;;;20.10;91.40;94300.00;5091157;28;20336;-44
2023/07/03 00:20:00;;;;;;;17.17;14.82;;;;;;;20.07;91.49;94300.38;5090954;28;20292;-44
2023/07/03 00:22:30;;;;;;;16.38;14.55;;;;;;;20.07;91.65;94299.59;5090646;28;20201;-45
2023/07/03 00:24:57;;;;;;;16.70;14.60;;;;;;;20.01;91.71;94299.41;5072900;28;20280;-45
2023/07/03 00:27:23;;;;;;;17.30;14.10;;;;;;;20.08;91.51;94306.38;5090368;28;20225;-46
2023/07/03 00:29:50;;;;;;;19.10;14.80;;;;;;;20.02;91.53;94306.19;5090710;28;20200;-45
2023/07/03 00:32:17;;;;;;;16.95;15.25;;;;;;;20.03;91.66;94304.41;5090681;28;20197;-45
2023/07/03 00:34:45;;;;;;;16.63;13.93;;;;;;;19.90;91.80;94283.69;5090437;28;20193;-44
2023/07/03 00:37:14;;;;;;;15.77;14.18;;;;;;;20.03;91.97;94307.81;5071824;28;20231;-44
2023/07/03 00:39:41;;;;;;;15.65;14.13;;;;;;;19.99;92.19;94311.81;5090600;28;20233;-44
2023/07/03 00:42:08;;;;;;;17.05;15.43;;;;;;;20.04;91.99;94314.59;5090223;28;20190;-44
2023/07/03 00:44:34;;;;;;;17.35;14.20;;;;;;;20.05;91.98;94313.59;5089562;28;20527;-45
2023/07/03 00:47:03;;;;;;;15.65;14.15;;;;;;;20.05;92.07;94321.38;5090045;28;20205;-45
2023/07/03 00:49:31;;;;;;;17.33;14.77;;;;;;;20.08;92.25;94320.19;5090344;28;20189;-43
2023/07/03 00:52:02;;;;;;;16.33;14.65;;;;;;;20.08;92.05;94315.00;5089832;28;20644;-45
2023/07/03 00:54:29;;;;;;;16.45;14.85;;;;;;;20.13;92.22;94315.16;5090692;28;20190;-44
2023/07/03 00:56:56;;;;;;;18.20;16.30;;;;;;;20.17;92.08;94320.75;5090217;28;20221;-45
2023/07/03 00:59:23;;;;;;;19.92;15.07;;;;;;;20.17;91.80;94318.16;5089971;28;20193;-45
2023/07/03 01:01:56;;;;;;;15.60;14.07;;;;;;;20.14;92.01;94319.34;5090212;28;20208;-44
2023/07/03 01:04:30;;;;;;;17.30;15.53;;;;;;;20.15;91.97;94318.34;5090324;28;20193;-44
2023/07/03 01:07:01;;;;;;;17.38;15.68;;;;;;;20.10;91.92;94309.59;5089756;28;20197;-44
2023/07/03 01:09:34;;;;;;;17.15;15.38;;;;;;;20.12;92.00;94317.94;5090109;28;20190;-45
2023/07/03 01:12:02;;;;;;;17.80;15.82;;;;;;;20.07;92.20;94315.19;5089627;28;20202;-43
2023/07/03 01:14:30;;;;;;;17.50;15.70;;;;;;;20.04;92.54;94317.19;5090300;28;20181;-42
2023/07/03 01:16:59;;;;;;;16.38;14.48;;;;;;;20.03;92.82;94317.38;5090046;28;20225;-44
2023/07/03 01:19:31;;;;;;;17.08;15.48;;;;;;;19.99;92.86;94318.78;5089691;28;20621;-44
2023/07/03 01:22:05;;;;;;;17.48;15.32;;;;;;;19.97;93.03;94316.41;5090107;28;20281;-44
2023/07/03 01:24:40;;;;;;;16.88;15.27;;;;;;;19.83;92.89;94299.28;5090222;28;20207;-44
2023/07/03 01:27:10;;;;;;;18.25;16.45;;;;;;;19.92;93.11;94321.41;5089307;28;20186;-44
2023/07/03 01:29:39;;;;;;;17.33;15.60;;;;;;;19.74;93.08;94295.31;5089671;28;20197;-43
2023/07/03 01:32:09;;;;;;;18.05;16.35;;;;;;;19.91;93.11;94324.22;5089487;28;20197;-43
2023/07/03 01:34:39;;;;;;;21.45;16.90;;;;;;;19.88;93.73;94319.44;5089908;28;20265;-44
2023/07/03 01:37:07;;;;;;;18.13;16.40;;;;;;;19.82;93.95;94321.06;5089468;28;20221;-43
2023/07/03 01:39:35;;;;;;;19.40;17.45;;;;;;;19.82;93.79;94320.22;5090009;28;20227;-45
2023/07/03 01:42:03;;;;;;;17.40;15.65;;;;;;;19.82;94.01;94321.06;5089600;28;20250;-44
2023/07/03 01:44:29;;;;;;;18.80;16.80;;;;;;;19.82;94.07;94315.88;5089346;28;20198;-43
2023/07/03 01:47:04;;;;;;;19.67;17.73;;;;;;;19.77;94.16;94315.66;5089440;28;20197;-43
2023/07/03 01:49:31;;;;;;;19.20;16.60;;;;;;;19.76;94.13;94321.84;5089783;28;20264;-44
2023/07/03 01:52:07;;;;;;;18.73;16.83;;;;;;;19.68;94.30;94309.09;5089444;28;20193;-44
2023/07/03 01:54:44;;;;;;;20.80;18.02;;;;;;;19.73;94.75;94314.47;5089458;28;20189;-44
2023/07/03 01:57:15;;;;;;;23.20;17.75;;;;;;;19.70;94.56;94317.50;5091834;28;20221;-42
2023/07/03 01:59:44;;;;;;;20.33;18.33;;;;;;;19.67;94.56;94318.69;5093464;28;20673;-45
2023/07/03 02:02:15;;;;;;;20.67;17.83;;;;;;;19.70;94.46;94320.09;5093697;28;20196;-44
2023/07/03 02:04:50;;;;;;;19.30;17.30;;;;;;;19.67;94.71;94317.88;5093484;28;20280;-44
2023/07/03 02:07:18;;;;;;;19.40;17.40;;;;;;;19.69;94.80;94324.47;5093176;28;20258;-44
2023/07/03 02:09:47;;;;;;;19.15;17.13;;;;;;;19.66;94.92;94311.09;5093915;28;20620;-43
2023/07/03 02:12:14;;;;;;;19.98;17.95;;;;;;;19.71;94.97;94322.47;5093390;28;20580;-43
2023/07/03 02:14:41;;;;;;;18.70;16.67;;;;;;;19.71;95.01;94330.25;5093475;28;20565;-44
2023/07/03 02:17:07;;;;;;;23.08;17.98;;;;;;;19.57;95.35;94307.09;5093567;28;20217;-45
2023/07/03 02:19:35;;;;;;;18.17;16.35;;;;;;;19.66;95.14;94317.09;5092984;28;20204;-44
2023/07/03 02:22:03;;;;;;;18.15;16.25;;;;;;;19.73;95.19;94332.63;5093585;28;20185;-44
2023/07/03 02:24:29;;;;;;;19.58;17.63;;;;;;;19.76;95.17;94334.81;5092979;28;20546;-45
2023/07/03 02:26:58;;;;;;;19.90;16.85;;;;;;;19.80;95.54;94333.44;5093081;28;20200;-45
2023/07/03 02:29:25;;;;;;;20.55;17.20;;;;;;;19.85;95.38;94341.38;5092784;28;20221;-44
2023/07/03 02:31:52;;;;;;;19.05;16.70;;;;;;;19.89;95.35;94339.19;5093364;28;20220;-45
2023/07/03 02:34:20;;;;;;;18.23;16.23;;;;;;;19.94;95.15;94342.75;5093384;28;20622;-44
2023/07/03 02:36:48;;;;;;;18.23;16.33;;;;;;;19.95;95.11;94341.00;5093957;28;20306;-44
2023/07/03 02:39:15;;;;;;;16.97;15.33;;;;;;;20.03;95.00;94344.16;5092846;28;20185;-45
2023/07/03 02:41:42;;;;;;;17.30;15.57;;;;;;;20.03;94.85;94336.38;5093507;28;20242;-45
2023/07/03 02:44:10;;;;;;;16.58;14.95;;;;;;;20.14;94.77;94353.09;5092699;28;20193;-44
2023/07/03 02:46:37;;;;;;;18.70;16.30;;;;;;;20.16;94.50;94352.88;5092627;28;20634;-44
2023/07/03 02:49:04;;;;;;;17.52;15.73;;;;;;;20.20;94.45;94348.88;5092444;28;20650;-44
2023/07/03 02:51:31;;;;;;;17.98;16.17;;;;;;;20.23;94.43;94351.06;5092715;28;20293;-44
2023/07/03 02:53:57;;;;;;;18.42;16.52;;;;;;;20.27;94.13;94360.84;5092645;28;20190;-44
2023/07/03 02:56:24;;;;;;;16.98;15.05;;;;;;;20.28;94.28;94359.03;5092656;28;20190;-46
2023/07/03 02:58:51;;;;;;;20.60;15.38;;;;;;;20.32;94.21;94346.44;5092890;28;20213;-45
2023/07/03 03:01:19;;;;;;;17.15;15.45;;;;;;;20.34;94.39;94363.44;5092488;28;20642;-45
2023/07/03 03:03:46;;;;;;;17.27;15.57;;;;;;;20.31;94.10;94350.84;5092208;28;20197;-42
2023/07/03 03:06:13;;;;;;;17.30;15.57;;;;;;;20.37;94.25;94362.19;5092498;28;20189;-44
2023/07/03 03:08:40;;;;;;;18.35;16.42;;;;;;;20.45;94.03;94367.97;5091496;28;20201;-44
2023/07/03 03:11:07;;;;;;;18.75;16.77;;;;;;;20.42;93.96;94365.78;5092187;28;20185;-46
2023/07/03 03:13:34;;;;;;;16.88;15.18;;;;;;;20.47;93.79;94365.97;5092718;28;20182;-44
2023/07/03 03:16:01;;;;;;;19.90;16.55;;;;;;;20.51;93.49;94369.00;5092066;28;20600;-43
2023/07/03 03:18:29;;;;;;;16.83;15.23;;;;;;;20.50;93.45;94359.56;5091873;28;20225;-46
2023/07/03 03:20:56;;;;;;;18.25;16.30;;;;;;;20.54;93.17;94371.94;5091916;28;20346;-46
2023/07/03 03:23:22;;;;;;;18.42;16.48;;;;;;;20.59;93.18;94360.13;5092021;28;20193;-44
2023/07/03 03:25:49;;;;;;;18.73;16.73;;;;;;;20.63;92.57;94374.31;5092048;28;20572;-44
2023/07/03 03:28:16;;;;;;;18.52;15.88;;;;;;;20.66;92.66;94369.50;5091479;28;20738;-44
2023/07/03 03:30:43;;;;;;;18.05;16.15;;;;;;;20.66;92.69;94366.09;5092050;28;20197;-44
2023/07/03 03:33:10;;;;;;;19.17;16.83;;;;;;;20.69;92.63;94365.69;5091954;28;20593;-44
2023/07/03 03:35:40;;;;;;;18.27;16.45;;;;;;;20.72;92.59;94376.44;5092049;28;20193;-45
2023/07/03 03:38:07;;;;;;;17.75;15.90;;;;;;;20.82;92.29;94373.41;5091699;28;20220;-45
2023/07/03 03:40:33;;;;;;;16.90;15.23;;;;;;;20.82;92.07;94378.63;5091986;28;20201;-44
2023/07/03 03:43:00;;;;;;;20.45;17.65;;;;;;;20.84;92.00;94381.00;5091747;28;20248;-44
2023/07/03 03:45:27;;;;;;;18.20;16.45;;;;;;;20.78;91.89;94367.84;5091858;28;20668;-45
2023/07/03 03:47:54;;;;;;;17.65;15.85;;;;;;;20.92;91.82;94386.75;5091133;28;20190;-45
2023/07/03 03:50:20;;;;;;;18.63;16.83;;;;;;;20.96;91.58;94376.75;5091918;28;20588;-45
2023/07/03 03:52:49;;;;;;;18.17;15.93;;;;;;;20.98;91.14;94379.91;5091206;28;20544;-44
2023/07/03 03:55:15;;;;;;;16.58;14.88;;;;;;;21.01;91.25;94377.69;5092008;28;20243;-44
2023/07/03 03:57:42;;;;;;;16.85;15.05;;;;;;;21.04;91.16;94382.47;5091434;28;20221;-44
2023/07/03 04:00:16;;;;;;;16.75;14.95;;;;;;;21.13;91.14;94393.44;5091856;28;20189;-42
2023/07/03 04:02:43;;;;;;;17.73;15.93;;;;;;;21.18;91.20;94396.19;5091238;28;20679;-44
2023/07/03 04:05:11;;;;;;;17.52;15.63;;;;;;;21.14;91.12;94389.81;5091403;28;20229;-44
2023/07/03 04:07:38;;;;;;;17.13;15.20;;;;;;;21.22;91.11;94399.19;5091331;28;20193;-43
2023/07/03 04:10:08;;;;;;;16.83;15.13;;;;;;;21.26;90.79;94395.94;5091018;28;20600;-44
2023/07/03 04:12:34;;;;;;;16.92;15.23;;;;;;;21.27;90.72;94402.72;5091404;28;20189;-46
2023/07/03 04:15:01;;;;;;;16.85;15.15;;;;;;;21.12;90.79;94378.03;5091140;28;20197;-45
2023/07/03 04:17:28;;;;;;;17.52;15.73;;;;;;;21.38;90.67;94397.91;5072951;28;20646;-45
2023/07/03 04:19:55;;;;;;;17.10;15.48;;;;;;;21.39;90.85;94402.09;5089842;28;20197;-44
2023/07/03 04:22:22;;;;;;;17.92;15.13;;;;;;;21.52;90.39;94407.19;5090977;28;20189;-45
2023/07/03 04:24:49;;;;;;;16.52;14.90;;;;;;;21.66;90.35;94413.09;5090763;28;20193;-45
2023/07/03 04:27:17;;;;;;;16.35;14.60;;;;;;;21.71;90.10;94415.84;5090586;28;20610;-44
2023/07/03 04:29:44;;;;;;;19.35;15.57;;;;;;;21.71;90.04;94416.63;5090845;28;20193;-47
2023/07/03 04:32:11;;;;;;;17.98;15.52;;;;;;;21.69;89.55;94405.66;5090935;28;20205;-42
2023/07/03 04:34:38;;;;;;;16.35;14.65;;;;;;;21.72;89.40;94423.47;5091011;28;20189;-46
2023/07/03 04:37:05;;;;;;;19.02;15.40;;;;;;;21.33;89.54;94363.91;5091001;28;20200;-46
2023/07/03 04:39:32;;;;;;;16.95;14.00;;;;;;;21.25;89.45;94354.53;5090705;28;20247;-43
2023/07/03 04:42:00;;;;;;;15.57;14.07;;;;;;;21.75;89.12;94427.41;5090801;28;20744;-44
2023/07/03 04:44:28;;;;;;;15.73;14.23;;;;;;;21.73;89.37;94421.66;5090830;28;20190;-46
2023/07/03 04:46:56;;;;;;;16.48;14.05;;;;;;;21.76;89.42;94427.22;5090439;28;20196;-45
2023/07/03 04:49:26;;;;;;;18.13;15.25;;;;;;;21.82;89.32;94419.56;5090817;28;20186;-45
2023/07/03 04:51:54;;;;;;;15.60;14.05;;;;;;;22.00;88.79;94427.41;5090416;28;20217;-45
2023/07/03 04:54:21;;;;;;;15.90;13.90;;;;;;;21.99;87.52;94386.75;5090739;28;20189;-46
2023/07/03 04:56:48;;;;;;;16.95;13.88;;;;;;;22.43;86.00;94430.00;5090312;28;20280;-42
2023/07/03 04:59:15;;;;;;;14.55;13.05;;;;;;;22.54;85.23;94421.47;5090923;28;20282;-47
2023/07/03 05:01:43;;;;;;;15.02;13.60;;;;;;;22.78;83.84;94432.81;5091048;28;20201;-44
2023/07/03 05:04:10;;;;;;;15.52;13.52;;;;;;;22.96;83.40;94434.59;5090175;28;20648;-44
2023/07/03 05:06:37;;;;;;;16.40;14.57;;;;;;;23.03;82.73;94414.47;5090373;28;20193;-44
2023/07/03 05:09:05;;;;;;;15.18;13.60;;;;;;;23.29;82.18;94438.59;5090747;28;20279;-44
2023/07/03 05:11:33;;;;;;;14.75;13.25;;;;;;;23.45;81.69;94442.41;5090278;28;20213;-45
2023/07/03 05:14:00;;;;;;;14.30;12.82;;;;;;;23.59;80.55;94419.50;5090497;28;20648;-44
2023/07/03 05:16:27;;;;;;;12.77;11.57;;;;;;;23.85;79.98;94439.19;5090491;28;20185;-46
2023/07/03 05:18:55;;;;;;;15.23;12.75;;;;;;;24.11;79.24;94443.19;5090261;28;20221;-46
2023/07/03 05:21:22;;;;;;;22.08;13.63;;;;;;;24.41;77.66;94445.69;5090502;28;20208;-45
2023/07/03 05:23:48;;;;;;;14.70;13.23;;;;;;;24.78;76.69;94443.53;5090352;28;20239;-44
2023/07/03 05:26:15;;;;;;;14.18;12.77;;;;;;;25.11;74.63;94440.28;5090540;28;20661;-46
2023/07/03 05:28:42;;;;;;;13.90;12.50;;;;;;;25.44;73.80;94446.63;5089822;28;20236;-45
2023/07/03 05:31:09;;;;;;;13.40;12.07;;;;;;;25.68;72.21;94447.28;5089950;28;20231;-45
2023/07/03 05:33:36;;;;;;;12.07;10.82;;;;;;;25.95;71.43;94456.13;5089689;28;20193;-46
2023/07/03 05:36:05;;;;;;;13.40;12.00;;;;;;;26.26;69.64;94452.13;5090300;28;20636;-45
2023/07/03 05:38:31;;;;;;;13.23;11.82;;;;;;;26.51;68.37;94462.22;5089813;28;20221;-46
2023/07/03 05:40:58;;;;;;;15.15;11.40;;;;;;;26.69;68.04;94466.38;5090456;28;20190;-47
2023/07/03 05:43:26;;;;;;;12.82;11.60;;;;;;;26.88;66.14;94468.69;5090264;28;20192;-44
2023/07/03 05:45:53;;;;;;;13.40;12.07;;;;;;;26.95;66.83;94470.09;5090546;28;20198;-47
2023/07/03 05:48:20;;;;;;;12.32;10.68;;;;;;;27.18;66.85;94468.28;5090217;28;20186;-45
2023/07/03 05:50:47;;;;;;;12.75;10.82;;;;;;;27.40;65.34;94465.59;5090376;28;20642;-43
2023/07/03 05:53:15;;;;;;;11.88;10.68;;;;;;;27.46;64.80;94470.66;5089677;28;20201;-45
2023/07/03 05:55:43;;;;;;;11.93;10.73;;;;;;;27.49;64.09;94474.63;5090147;28;20239;-47
2023/07/03 05:58:11;;;;;;;12.52;11.32;;;;;;;27.50;63.96;94471.75;5089735;28;20361;-46
2023/07/03 06:00:38;;;;;;;12.82;10.88;;;;;;;27.67;64.41;94470.84;5089833;28;20204;-47
2023/07/03 06:03:05;;;;;;;12.68;10.90;;;;;;;27.90;63.26;94470.56;5090102;28;20244;-47
2023/07/03 06:05:31;;;;;;;11.20;9.77;;;;;;;28.04;63.27;94467.50;5089630;28;20192;-46
2023/07/03 06:07:58;;;;;;;12.07;10.93;;;;;;;28.34;61.39;94457.16;5089844;28;20186;-46
2023/07/03 06:10:27;;;;;;;12.00;10.73;;;;;;;28.46;61.04;94464.91;5089816;28;20205;-45
2023/07/03 06:12:54;;;;;;;13.68;10.82;;;;;;;28.32;60.23;94463.72;5089634;28;20190;-44
2023/07/03 06:15:21;;;;;;;15.00;11.10;;;;;;;28.21;61.63;94463.66;5089284;28;20255;-47
2023/07/03 06:17:48;;;;;;;10.85;9.75;;;;;;;28.33;61.29;94460.06;5089457;28;20626;-45
2023/07/03 06:20:14;;;;;;;11.35;10.25;;;;;;;28.65;61.28;94458.16;5089209;28;20281;-45
2023/07/03 06:22:43;;;;;;;13.73;10.48;;;;;;;28.84;58.96;94466.38;5089538;28;20676;-47
2023/07/03 06:25:11;;;;;;;10.32;9.13;;;;;;;28.83;60.15;94474.56;5089297;28;20193;-44
2023/07/03 06:27:39;;;;;;;9.93;9.02;;;;;;;28.96;58.50;94458.31;5089699;28;20225;-46
2023/07/03 06:30:08;;;;;;;11.23;9.77;;;;;;;29.06;58.70;94474.16;5089334;28;20205;-44
2023/07/03 06:32:35;;;;;;;12.07;10.30;;;;;;;29.11;58.11;94468.13;5089259;28;20239;-45
2023/07/03 06:35:02;;;;;;;10.75;9.50;;;;;;;29.19;57.91;94472.88;5089253;28;20185;-47
2023/07/03 06:37:31;;;;;;;12.65;9.93;;;;;;;29.17;56.97;94478.38;5089460;28;20299;-45
2023/07/03 06:39:58;;;;;;;9.80;8.90;;;;;;;29.06;57.06;94468.91;5089741;28;20240;-45
2023/07/03 06:42:25;;;;;;;12.45;9.85;;;;;;;29.00;57.60;94481.22;5089650;28;20208;-45
2023/07/03 06:44:53;;;;;;;13.73;9.77;;;;;;;28.94;58.16;94463.03;5093405;28;20205;-45
2023/07/03 06:47:21;;;;;;;11.77;9.95;;;;;;;28.81;58.35;94435.31;5092706;28;20194;-47
2023/07/03 06:49:48;;;;;;;10.18;9.18;;;;;;;29.16;58.17;94473.41;5093454;28;20190;-45
2023/07/03 06:52:15;;;;;;;15.50;10.02;;;;;;;29.26;57.05;94473.41;5092929;28;20228;-45
2023/07/03 06:54:42;;;;;;;10.40;9.30;;;;;;;29.16;57.46;94473.41;5093537;28;20208;-47
2023/07/03 06:57:09;;;;;;;10.68;9.40;;;;;;;29.28;57.18;94473.16;5093617;28;20181;-43
2023/07/03 06:59:36;;;;;;;13.13;9.73;;;;;;;29.23;57.40;94474.75;5093329;28;20238;-45
2023/07/03 07:02:05;;;;;;;15.13;9.57;;;;;;;29.20;57.26;94463.91;5092483;28;20193;-46
2023/07/03 07:04:32;;;;;;;9.55;8.60;;;;;;;29.30;57.93;94466.56;5092765;28;20532;-45
2023/07/03 07:06:59;;;;;;;13.10;9.63;;;;;;;29.45;57.83;94474.53;5092395;28;20189;-44
2023/07/03 07:09:26;;;;;;;9.27;8.38;;;;;;;29.53;57.05;94469.78;5092835;28;20189;-47
2023/07/03 07:11:52;;;;;;;10.80;9.13;;;;;;;29.78;56.58;94469.81;5092139;28;20200;-43
2023/07/03 07:14:19;;;;;;;10.57;9.45;;;;;;;29.92;55.74;94465.63;5092348;28;20582;-46
2023/07/03 07:16:46;;;;;;;10.45;8.85;;;;;;;29.90;55.17;94466.94;5092808;28;20326;-46
2023/07/03 07:19:14;;;;;;;12.05;9.88;;;;;;;29.86;54.91;94460.59;5092855;28;20209;-46
2023/07/03 07:21:42;;;;;;;12.13;9.73;;;;;;;29.61;55.43;94453.47;5092704;28;20190;-45
2023/07/03 07:24:16;;;;;;;10.55;9.45;;;;;;;29.70;55.95;94467.72;5092203;28;20277;-44
2023/07/03 07:26:43;;;;;;;10.10;9.20;;;;;;;29.74;56.27;94474.81;5092102;28;20649;-44
2023/07/03 07:29:10;;;;;;;9.98;8.90;;;;;;;29.84;54.35;94460.88;5091779;28;20225;-46
2023/07/03 07:31:37;;;;;;;10.38;9.25;;;;;;;29.63;55.10;94448.75;5092116;28;20197;-45
2023/07/03 07:34:05;;;;;;;9.63;8.38;;;;;;;29.63;55.59;94464.56;5091927;28;20201;-46
2023/07/03 07:36:34;;;;;;;9.80;8.60;;;;;;;29.45;55.84;94471.09;5091962;28;20274;-46
2023/07/03 07:39:02;;;;;;;11.90;9.07;;;;;;;29.27;56.15;94471.56;5091535;28;20226;-45
2023/07/03 07:41:30;;;;;;;11.00;9.00;;;;;;;29.09;56.97;94480.72;5091732;28;20201;-46
2023/07/03 07:43:58;;;;;;;9.23;8.25;;;;;;;29.09;57.40;94478.09;5091293;28;20198;-44
2023/07/03 07:46:29;;;;;;;10.75;8.50;;;;;;;29.40;56.65;94479.75;5091721;28;20676;-44
2023/07/03 07:48:57;;;;;;;9.23;8.20;;;;;;;29.70;55.29;94492.22;5073576;28;20251;-46
2023/07/03 07:51:25;;;;;;;12.18;8.63;;;;;;;30.04;54.46;94488.28;5091636;28;20181;-45
2023/07/03 07:53:55;;;;;;;10.52;8.52;;;;;;;30.06;54.00;94483.56;5091266;28;20201;-45
2023/07/03 07:56:23;;;;;;;18.05;8.25;;;;;;;29.93;54.62;94496.22;5091439;28;20190;-44
2023/07/03 07:58:49;;;;;;;9.57;7.53;;;;;;;29.61;54.29;94470.06;5090971;28;20206;-45
2023/07/03 08:01:17;;;;;;;11.80;8.00;;;;;;;29.56;54.42;94485.09;5091690;28;20294;-44
2023/07/03 08:03:44;;;;;;;8.18;7.38;;;;;;;29.45;54.07;94479.78;5091162;28;20194;-46
2023/07/03 08:06:12;;;;;;;8.77;7.88;;;;;;;29.40;55.25;94484.25;5091117;28;20205;-46
2023/07/03 08:08:40;;;;;;;9.38;8.15;;;;;;;29.56;56.25;94495.63;5091488;28;20676;-47
2023/07/03 08:11:09;;;;;;;8.98;8.15;;;;;;;29.83;55.20;94501.47;5091665;28;20201;-44
2023/07/03 08:13:37;;;;;;;16.13;8.00;;;;;;;30.09;54.57;94496.19;5091603;28;20649;-46
2023/07/03 08:16:05;;;;;;;8.45;7.63;;;;;;;30.14;53.35;94481.22;5090624;28;20200;-45
2023/07/03 08:18:32;;;;;;;9.23;8.27;;;;;;;30.38;53.12;94499.13;5090944;28;20202;-45
2023/07/03 08:20:59;;;;;;;9.02;8.13;;;;;;;30.54;52.38;94505.16;5090842;28;20651;-45
2023/07/03 08:23:26;;;;;;;10.65;7.38;;;;;;;30.72;52.06;94500.13;5090693;28;20190;-46
2023/07/03 08:25:54;;;;;;;7.82;7.07;;;;;;;30.99;51.32;94502.41;5090888;28;20201;-46
2023/07/03 08:28:23;;;;;;;9.02;7.07;;;;;;;30.75;51.35;94505.94;5091542;28;20725;-46
2023/07/03 08:30:50;;;;;;;9.88;7.63;;;;;;;30.46;52.28;94502.00;5091032;28;20194;-45
2023/07/03 08:33:17;;;;;;;8.15;7.32;;;;;;;30.41;52.50;94480.13;5091028;28;20196;-45
2023/07/03 08:35:44;;;;;;;8.02;6.43;;;;;;;30.55;51.86;94501.47;5090616;28;20737;-46
2023/07/03 08:38:11;;;;;;;7.72;6.78;;;;;;;30.41;51.42;94503.88;5090627;28;20197;-47
2023/07/03 08:40:38;;;;;;;7.38;6.68;;;;;;;30.59;51.14;94508.56;5090356;28;20209;-46
2023/07/03 08:43:09;;;;;;;11.13;7.68;;;;;;;30.60;50.47;94517.28;5090722;28;20595;-46
2023/07/03 08:45:38;;;;;;;8.20;7.00;;;;;;;30.46;51.23;94509.91;5090663;28;20213;-47
2023/07/03 08:48:08;;;;;;;8.32;7.50;;;;;;;30.29;51.51;94504.13;5090493;28;20255;-47
2023/07/03 08:50:36;;;;;;;8.60;7.70;;;;;;;30.26;50.78;94503.88;5090353;28;20201;-46
2023/07/03 08:53:04;;;;;;;9.70;6.80;;;;;;;30.18;51.70;94508.66;5090384;28;20194;-44
2023/07/03 08:55:38;;;;;;;8.23;7.43;;;;;;;30.04;52.74;94512.03;5090676;28;20233;-45
2023/07/03 08:58:05;;;;;;;8.35;6.95;;;;;;;29.78;52.81;94508.59;5090654;28;20186;-46
2023/07/03 09:00:38;;;;;;;9.52;7.03;;;;;;;29.60;53.23;94510.66;5090298;28;20214;-45
2023/07/03 09:03:16;;;;;;;7.38;6.63;;;;;;;29.53;52.85;94507.44;5090589;28;20276;-46
2023/07/03 09:05:49;;;;;;;7.88;6.18;;;;;;;29.41;53.87;94499.03;5089454;28;20182;-46
2023/07/03 09:08:21;;;;;;;7.53;6.80;;;;;;;29.43;53.64;94499.53;5090117;28;20212;-47
2023/07/03 09:10:50;;;;;;;7.72;6.85;;;;;;;29.62;52.38;94505.94;5090446;28;20189;-45
2023/07/03 09:13:22;;;;;;;9.00;6.85;;;;;;;29.70;52.43;94509.88;5090596;28;20232;-46
2023/07/03 09:15:57;;;;;;;9.82;6.60;;;;;;;29.67;51.29;94486.72;5089934;28;20544;-46
2023/07/03 09:18:32;;;;;;;7.65;6.85;;;;;;;29.97;51.56;94501.75;5090393;28;20196;-46
2023/07/03 09:21:01;;;;;;;7.03;6.35;;;;;;;30.10;49.98;94479.34;5090091;28;20279;-46
2023/07/03 09:23:32;;;;;;;8.35;7.05;;;;;;;30.52;49.60;94515.19;5090389;28;20189;-45
2023/07/03 09:26:04;;;;;;;12.65;7.45;;;;;;;30.72;49.86;94510.69;5089823;28;20193;-49
2023/07/03 09:28:35;;;;;;;8.00;7.20;;;;;;;30.77;48.72;94506.44;5089872;28;20233;-47
2023/07/03 09:31:01;;;;;;;8.55;6.47;;;;;;;30.80;48.54;94513.84;5089847;28;20645;-44
2023/07/03 09:33:30;;;;;;;7.72;6.75;;;;;;;30.70;48.96;94509.34;5089822;28;20194;-45
2023/07/03 09:35:57;;;;;;;6.85;6.05;;;;;;;30.67;50.03;94515.94;5089648;28;20719;-45
2023/07/03 09:38:25;;;;;;;8.88;6.47;;;;;;;30.75;49.86;94512.00;5089906;28;20663;-45
2023/07/03 09:40:55;;;;;;;7.80;6.97;;;;;;;30.91;48.95;94516.16;5089623;28;20205;-45
2023/07/03 09:43:25;;;;;;;6.60;5.72;;;;;;;30.92;47.27;94516.97;5090351;28;20181;-45
2023/07/03 09:46:03;;;;;;;7.10;6.40;;;;;;;30.82;47.78;94509.06;5089555;28;20189;-46
2023/07/03 09:48:31;;;;;;;6.97;6.28;;;;;;;30.83;47.82;94506.19;5089617;28;20189;-45
2023/07/03 09:50:58;;;;;;;7.20;6.50;;;;;;;30.80;48.20;94505.94;5089495;28;20197;-47
2023/07/03 09:53:28;;;;;;;6.60;5.90;;;;;;;30.82;48.94;94503.78;5089635;28;20186;-46
2023/07/03 09:55:56;;;;;;;10.02;6.68;;;;;;;30.96;48.82;94505.59;5089400;28;20193;-46
2023/07/03 09:58:25;;;;;;;7.57;6.82;;;;;;;31.03;46.81;94501.88;5090606;28;20204;-47
2023/07/03 10:00:54;;;;;;;8.20;7.00;;;;;;;30.82;47.50;94498.50;5089826;28;20225;-46
2023/07/03 10:03:26;;;;;;;9.35;6.80;;;;;;;30.67;48.16;94486.13;5089930;28;20251;-46
2023/07/03 10:05:55;;;;;;;9.57;7.88;;;;;;;30.55;48.88;94504.09;5089446;28;20200;-47
2023/07/03 10:08:25;;;;;;;8.10;6.78;;;;;;;30.34;49.79;94492.78;5089846;28;20193;-46
2023/07/03 10:10:56;;;;;;;7.90;6.43;;;;;;;30.38;50.62;94497.25;5089329;28;20653;-45
2023/07/03 10:13:27;;;;;;;7.05;6.22;;;;;;;30.41;51.22;94496.75;5090041;28;20212;-46
2023/07/03 10:15:55;;;;;;;6.70;6.00;;;;;;;30.51;50.67;94498.56;5089552;28;20196;-46
2023/07/03 10:18:27;;;;;;;6.28;5.68;;;;;;;30.49;50.62;94490.13;5091106;28;20197;-49
2023/07/03 10:20:56;;;;;;;7.07;6.38;;;;;;;30.52;51.18;94476.38;5093228;28;20217;-44
2023/07/03 10:23:27;;;;;;;6.43;5.82;;;;;;;30.80;50.12;94498.78;5094305;28;20200;-46
2023/07/03 10:25:59;;;;;;;7.82;6.32;;;;;;;30.91;48.91;94502.97;5093207;28;20239;-48
2023/07/03 10:28:33;;;;;;;8.65;6.32;;;;;;;30.98;49.88;94492.13;5093283;28;20241;-46
2023/07/03 10:31:04;;;;;;;7.28;6.57;;;;;;;31.18;49.10;94492.03;5093379;28;20288;-45
2023/07/03 10:33:35;;;;;;;7.75;6.47;;;;;;;31.33;48.49;94485.13;5093659;28;20197;-46
2023/07/03 10:36:08;;;;;;;8.18;6.18;;;;;;;31.38;47.00;94471.88;5093099;28;20201;-48
2023/07/03 10:38:42;;;;;;;8.35;5.82;;;;;;;31.52;45.71;94480.78;5093369;28;20325;-45
2023/07/03 10:41:19;;;;;;;7.68;5.85;;;;;;;31.46;46.14;94481.88;5092920;28;20580;-49
2023/07/03 10:43:50;;;;;;;6.50;5.93;;;;;;;31.31;45.56;94474.03;5093570;28;20186;-45
2023/07/03 10:46:24;;;;;;;7.35;6.40;;;;;;;31.20;45.91;94489.13;5092898;28;20585;-47
2023/07/03 10:48:53;;;;;;;7.95;6.25;;;;;;;31.15;46.23;94483.88;5093135;28;20193;-46
2023/07/03 10:51:31;;;;;;;8.95;5.82;;;;;;;31.21;45.83;94490.69;5092830;28;20182;-44
2023/07/03 10:54:04;;;;;;;8.88;5.95;;;;;;;31.23;46.18;94496.50;5093007;28;20202;-46
2023/07/03 10:56:36;;;;;;;6.43;5.72;;;;;;;31.17;45.81;94487.78;5092685;28;20186;-46
2023/07/03 10:59:11;;;;;;;7.18;5.57;;;;;;;31.17;45.87;94485.16;5092637;28;20601;-45
2023/07/03 11:01:44;;;;;;;6.30;5.65;;;;;;;31.05;44.96;94489.19;5092587;28;20212;-44
2023/07/03 11:04:21;;;;;;;5.72;5.15;;;;;;;30.97;45.28;94490.53;5092712;28;20545;-46
2023/07/03 11:06:59;;;;;;;6.38;5.72;;;;;;;31.01;44.74;94483.66;5092571;28;20238;-46
2023/07/03 11:09:40;;;;;;;8.68;5.45;;;;;;;30.93;46.33;94477.09;5092842;28;20177;-46
2023/07/03 11:12:21;;;;;;;5.90;5.40;;;;;;;30.76;48.64;94478.47;5091805;28;20193;-45
2023/07/03 11:14:59;;;;;;;7.55;5.50;;;;;;;30.47;49.69;94479.81;5092639;28;20193;-47
2023/07/03 11:17:34;;;;;;;5.38;4.88;;;;;;;30.24;50.48;94480.41;5075583;28;20197;-48
2023/07/03 11:20:08;;;;;;;5.90;5.30;;;;;;;30.02;50.15;94483.28;5092528;28;20642;-45
2023/07/03 11:22:44;;;;;;;6.82;5.15;;;;;;;29.75;50.90;94483.56;5092943;28;20194;-47
2023/07/03 11:25:20;;;;;;;5.80;5.00;;;;;;;29.45;51.58;94484.28;5092566;28;20189;-45
2023/07/03 11:27:55;;;;;;;8.10;5.28;;;;;;;29.33;52.29;94478.44;5092435;28;20225;-46
2023/07/03 11:30:25;;;;;;;5.95;5.15;;;;;;;29.23;52.33;94464.19;5091769;28;20606;-47